»·PEaware :: UAL280 KMRY-KSBA

UAL280 :: KMRY-KSBA

FLIGHT INFORMATION

Flight Status: Arrived
Operator:
United Airlines
More flights by this operator :: More flights under this callsign
Pilot: Ion I. (24133)
Aircraft: BOEING 737-800
(B738)
More flights by this aircraft type
Origin: KMRY Monterey Peninsula
United States
Destination: KSBA Santa Barbara Mun
United States
More flights between these airports :: More routes between these airports
Route: +MRY5 SHOEY SNS V25 PRB V113 MQO V27 GVO
File this flight plan on PilotEdge
Remarks:
Altitude:
(Current/Filed)
23,000ft
Speed:
(Current/Filed)
460kts
Departed: 08-Sep-20 09:21 AM
Arrived: 08-Sep-20 09:58 AM
Distance/Time
Traveled:
163nm/0:37
Distance/Time
To Go:
Arrived

Flight Plot

Page will automatically refresh every two minutes.

Flight plan parsing failed; only flown route is shown


Map Options




Map Legend


Flown Route
Filed Route
Departure Airport
Arrival Airport
Navaid (VOR, NDB)
Fix

Horizontal Profiles

Position Reports

Time Latitude Longitude Heading Altitude Ground
Speed
08-Sep-20 08:51 36.587632 -121.849960 238 213ft 0kts
08-Sep-20 08:52 36.587632 -121.849960 238 213ft 0kts
08-Sep-20 08:53 36.587632 -121.849960 238 213ft 0kts
08-Sep-20 08:54 36.587632 -121.849960 238 213ft 0kts
08-Sep-20 08:55 36.587632 -121.849960 238 213ft 0kts
08-Sep-20 08:56 36.587632 -121.849960 238 213ft 0kts
08-Sep-20 08:57 36.587632 -121.849960 238 213ft 0kts
08-Sep-20 08:58 36.587632 -121.849960 238 213ft 0kts
08-Sep-20 08:59 36.587632 -121.849960 238 213ft 0kts
08-Sep-20 09:00 36.587632 -121.849960 238 213ft 0kts
08-Sep-20 09:01 36.587632 -121.849960 238 213ft 0kts
08-Sep-20 09:02 36.587632 -121.849960 238 213ft 0kts
08-Sep-20 09:03 36.587632 -121.849960 238 213ft 0kts
08-Sep-20 09:04 36.587632 -121.849960 238 213ft 0kts
08-Sep-20 09:05 36.587632 -121.849960 238 213ft 0kts
08-Sep-20 09:06 36.587632 -121.849960 238 213ft 0kts
08-Sep-20 09:07 36.587632 -121.849960 238 213ft 0kts
08-Sep-20 09:08 36.587632 -121.849960 238 213ft 0kts
08-Sep-20 09:09 36.587632 -121.849960 238 213ft 0kts
08-Sep-20 09:10 36.587632 -121.849960 238 213ft 0kts
08-Sep-20 09:11 36.587632 -121.849960 238 213ft 0kts
08-Sep-20 09:12 36.587746 -121.849718 238 213ft 2kts
08-Sep-20 09:13 36.587977 -121.849226 239 213ft 0kts
08-Sep-20 09:14 36.587976 -121.849227 239 213ft 0kts
08-Sep-20 09:15 36.587976 -121.849228 239 213ft 0kts
08-Sep-20 09:16 36.587953 -121.849279 241 213ft 4kts
08-Sep-20 09:17 36.588833 -121.852266 293 213ft 10kts
08-Sep-20 09:18 36.590063 -121.856326 293 213ft 11kts
08-Sep-20 09:19 36.591004 -121.856235 110 213ft 0kts
08-Sep-20 09:20 36.580870 -121.826443 111 876ft 157kts
08-Sep-20 09:21 36.613935 -121.797128 346 3017ft 192kts
08-Sep-20 09:22 36.676261 -121.815489 8 4998ft 265kts
08-Sep-20 09:23 36.705609 -121.737754 110 8082ft 309kts
08-Sep-20 09:24 36.639299 -121.665110 142 10810ft 336kts
08-Sep-20 09:25 36.566393 -121.587512 137 12845ft 372kts
08-Sep-20 09:26 36.487434 -121.501653 136 15785ft 383kts
08-Sep-20 09:27 36.405305 -121.412715 136 16996ft 410kts
08-Sep-20 09:28 36.317747 -121.317461 136 16979ft 419kts
08-Sep-20 09:29 36.230306 -121.222834 136 17013ft 418kts
08-Sep-20 09:30 36.142179 -121.127944 136 17003ft 419kts
08-Sep-20 09:31 36.059819 -121.039552 136 16999ft 420kts
08-Sep-20 09:32 35.980143 -120.954289 136 16997ft 419kts
08-Sep-20 09:33 35.891757 -120.859667 136 16997ft 420kts
08-Sep-20 09:34 35.803198 -120.765463 136 16997ft 421kts
08-Sep-20 09:35 35.714914 -120.671994 137 16570ft 405kts
08-Sep-20 09:36 35.611003 -120.645163 192 15564ft 392kts
08-Sep-20 09:37 35.506678 -120.679544 195 14565ft 385kts
08-Sep-20 09:38 35.410540 -120.709898 196 13632ft 379kts
08-Sep-20 09:39 35.314021 -120.740230 196 12680ft 373kts
08-Sep-20 09:40 35.222744 -120.733494 149 11757ft 371kts
08-Sep-20 09:41 35.145755 -120.659813 143 10804ft 366kts
08-Sep-20 09:42 35.065354 -120.584823 141 9800ft 360kts
08-Sep-20 09:43 34.994301 -120.518649 142 9012ft 311kts
08-Sep-20 09:44 34.927099 -120.456223 142 9020ft 306kts
08-Sep-20 09:45 34.856320 -120.390698 142 9021ft 321kts
08-Sep-20 09:46 34.785577 -120.324968 142 9019ft 320kts
08-Sep-20 09:47 34.716381 -120.260933 142 9011ft 307kts
08-Sep-20 09:48 34.648863 -120.198881 142 7880ft 303kts
08-Sep-20 09:49 34.589584 -120.144520 143 6372ft 293kts
08-Sep-20 09:50 34.525308 -120.091621 165 5974ft 251kts
08-Sep-20 09:51 34.465144 -120.091144 189 5118ft 205kts
08-Sep-20 09:52 34.416105 -120.072388 102 3440ft 193kts
08-Sep-20 09:53 34.422101 -120.012837 76 2528ft 174kts
08-Sep-20 09:54 34.425462 -119.955689 87 1611ft 165kts
08-Sep-20 09:55 34.426434 -119.902589 87 801ft 149kts
08-Sep-20 09:56 34.427439 -119.857559 89 83ft 140kts
08-Sep-20 09:57 34.427931 -119.836377 88 18ft 12kts
08-Sep-20 09:58 34.426759 -119.835953 266 18ft 5kts
08-Sep-20 09:59 34.426544 -119.838225 199 18ft 7kts
08-Sep-20 10:00 34.425131 -119.837278 114 18ft 1kts
08-Sep-20 10:01 34.425113 -119.837231 114 18ft 0kts
08-Sep-20 10:02 34.425113 -119.837231 114 18ft 0kts
08-Sep-20 10:03 34.425113 -119.837231 114 18ft 0kts
08-Sep-20 10:04 34.425113 -119.837231 114 18ft 0kts

Navigation Log

Ident Type
Flight plan parsing failed, navigation log unavailable